METAR LDZA 270630Z 03006KT 010V070 CAVOK 13/08 Q1020 NOSIG =
METAR LDZA 270600Z 02003KT 340V070 CAVOK 12/08 Q1020 NOSIG =
METAR LDZA 270530Z VRB02KT CAVOK 12/08 Q1020 NOSIG =
METAR LDZA 270500Z VRB02KT CAVOK 11/08 Q1020 NOSIG =
METAR LDZA 270430Z VRB01KT CAVOK 11/08 Q1020 NOSIG =
METAR LDZA 270400Z 00000KT CAVOK 11/08 Q1020 NOSIG =
METAR LDZA 270330Z 00000KT CAVOK 11/07 Q1020 NOSIG =
METAR LDZA 270300Z 00000KT CAVOK 11/07 Q1020 NOSIG =
METAR LDZA 270230Z 00000KT CAVOK 11/07 Q1020 NOSIG =
METAR LDZA 270200Z 00000KT CAVOK 11/07 Q1020 NOSIG =
METAR LDZA 270130Z 32002KT CAVOK 11/07 Q1020 NOSIG =
METAR LDZA 270100Z 33002KT CAVOK 11/07 Q1020 NOSIG =
METAR LDZA 270030Z 00000KT CAVOK 11/07 Q1020 NOSIG =
METAR LDZA 270000Z 00000KT CAVOK 11/07 Q1020 NOSIG =
METAR LDZA 262330Z VRB02KT CAVOK 11/07 Q1021 NOSIG =
METAR LDZA 262300Z 07003KT 030V130 CAVOK 11/07 Q1021 NOSIG =
METAR LDZA 262230Z 07004KT 030V120 9999 FEW020 11/07 Q1021 NOSIG =
METAR LDZA 262200Z 06004KT 020V130 9999 FEW020 12/07 Q1021 NOSIG =
METAR LDZA 262130Z 07005KT 010V110 9999 FEW020 12/07 Q1020 NOSIG =
METAR LDZA 262100Z 06004KT 330V120 9999 FEW020 12/07 Q1020 NOSIG =
METAR LDZA 262030Z 05011KT 350V090 CAVOK 12/07 Q1019 NOSIG =
METAR LDZA 262000Z 05012KT 010V080 CAVOK 12/07 Q1019 NOSIG =
METAR LDZA 261930Z 04015KT 010V070 CAVOK 13/06 Q1019 NOSIG =
METAR LDZA 261900Z 04015KT 330V080 CAVOK 13/06 Q1018 NOSIG =
METAR LDZA 261830Z 05016KT 010V100 CAVOK 14/05 Q1016 TEMPO 05015G25KT =
METAR LDZA 261800Z 04023KT 010V080 CAVOK 14/05 Q1016 TEMPO 05022G32KT =
METAR LDZA 261730Z 04021KT 010V120 CAVOK 15/05 Q1015 TEMPO 05022G32KT =
METAR LDZA 261700Z 05019G30KT 010V100 CAVOK 16/06 Q1014 NOSIG =
METAR LDZA 261630Z 05021KT 020V100 CAVOK 17/08 Q1013 NOSIG =
METAR LDZA 261600Z 04023KT 010V070 CAVOK 19/08 Q1013 NOSIG =
METAR LDZA 261530Z 04021KT 010V080 CAVOK 21/09 Q1012 NOSIG =
METAR LDZA 261500Z 05017KT 010V090 CAVOK 23/10 Q1012 NOSIG =
METAR LDZA 261430Z 05017KT 010V090 CAVOK 23/11 Q1011 NOSIG =
METAR LDZA 261400Z 05014KT 350V100 CAVOK 24/11 Q1011 NOSIG =
METAR LDZA 261330Z 05012KT 360V110 CAVOK 25/11 Q1012 NOSIG =
METAR LDZA 261300Z 06010KT 010V120 CAVOK 25/12 Q1012 NOSIG =
METAR LDZA 261230Z 04011KT 350V100 CAVOK 25/12 Q1012 NOSIG =
METAR LDZA 261200Z 07006KT 350V160 CAVOK 25/11 Q1012 NOSIG =
METAR LDZA 261130Z 08008KT 040V130 9999 FEW045 24/11 Q1012 NOSIG =
METAR LDZA 261100Z 07008KT 020V130 9999 FEW045 24/11 Q1012 NOSIG =
METAR LDZA 261030Z 06007KT 350V110 9999 FEW045 24/11 Q1013 NOSIG =
METAR LDZA 261000Z 06007KT 010V150 CAVOK 24/12 Q1013 NOSIG =
METAR LDZA 260930Z VRB06KT CAVOK 23/11 Q1013 NOSIG =
METAR LDZA 260900Z 04006KT 360V120 CAVOK 23/11 Q1013 NOSIG =
METAR LDZA 260830Z 07007KT 010V150 CAVOK 22/11 Q1013 NOSIG =
METAR LDZA 260800Z VRB05KT CAVOK 21/10 Q1013 BECMG 05008KT =
METAR LDZA 260730Z VRB01KT CAVOK 21/11 Q1013 BECMG FM0800 05008KT =
METAR LDZA 260700Z 29004KT 230V340 CAVOK 20/11 Q1013 NOSIG =
METAR LDZA 260630Z 25005KT 220V280 CAVOK 18/10 Q1013 NOSIG =
METAR LDZA 260600Z 23004KT 200V260 CAVOK 17/10 Q1012 NOSIG =
METAR LDZA 260530Z 23003KT 200V260 CAVOK 14/09 Q1012 NOSIG =
METAR LDZA 260500Z 24005KT CAVOK 13/08 Q1012 NOSIG =
METAR LDZA 260430Z 24003KT CAVOK 12/08 Q1012 NOSIG =
METAR LDZA 260400Z 24004KT CAVOK 12/07 Q1012 NOSIG =
METAR LDZA 260330Z 23003KT 210V340 CAVOK 12/07 Q1012 NOSIG =
METAR LDZA 260300Z 23005KT CAVOK 13/07 Q1012 NOSIG =
METAR LDZA 260230Z 24006KT CAVOK 14/08 Q1012 NOSIG =
METAR LDZA 260200Z 26005KT CAVOK 14/08 Q1012 NOSIG =
METAR LDZA 260130Z 24005KT CAVOK 14/08 Q1012 NOSIG =
METAR LDZA 260100Z 23007KT CAVOK 14/08 Q1012 BECMG 23004KT =
METAR LDZA 260030Z 23005KT CAVOK 13/08 Q1012 NOSIG =
METAR LDZA 260000Z 00000KT CAVOK 13/07 Q1012 NOSIG =
METAR LDZA 252330Z 24003KT CAVOK 14/08 Q1012 NOSIG =
METAR LDZA 252300Z 24005KT CAVOK 15/08 Q1012 NOSIG =
METAR LDZA 252230Z 23007KT CAVOK 16/08 Q1012 NOSIG =
METAR LDZA 252200Z 27003KT CAVOK 14/08 Q1012 NOSIG =
METAR LDZA 252130Z VRB02KT CAVOK 15/08 Q1012 NOSIG =
METAR LDZA 252100Z 23004KT CAVOK 16/08 Q1012 NOSIG =
METAR LDZA 252030Z 23006KT 200V260 CAVOK 17/08 Q1012 NOSIG =
METAR LDZA 252000Z 23007KT CAVOK 18/08 Q1012 NOSIG =
METAR COR LDZA 251930Z 23008KT CAVOK 19/08 Q1012 NOSIG =
METAR LDZA 251900Z 23009KT CAVOK 20/09 Q1012 NOSIG =